createdAt,value
2018-11-21T00:02:48.670Z,2.86
2018-11-21T00:07:45.566Z,2.95
2018-11-21T00:12:45.699Z,3.04
2018-11-21T00:17:42.577Z,3.09
2018-11-21T00:22:39.455Z,3.17
2018-11-21T00:27:36.351Z,3.23
2018-11-21T00:32:33.233Z,3.27
2018-11-21T00:37:30.122Z,3.34
2018-11-21T00:42:27.026Z,3.37
2018-11-21T00:47:23.922Z,3.45
2018-11-21T00:52:20.794Z,3.42
2018-11-21T00:57:17.687Z,3.47
2018-11-21T01:02:14.567Z,3.45
2018-11-21T01:07:11.574Z,3.50
2018-11-21T01:12:08.494Z,3.51
2018-11-21T01:17:05.375Z,3.49
2018-11-21T01:22:02.275Z,3.52
2018-11-21T01:26:59.149Z,3.50
2018-11-21T01:31:56.047Z,3.48
2018-11-21T01:36:52.946Z,3.47
2018-11-21T01:41:49.853Z,3.40
2018-11-21T01:46:46.738Z,3.45
2018-11-21T01:51:43.622Z,3.42
2018-11-21T01:56:40.500Z,3.39
2018-11-21T02:01:37.380Z,3.44
2018-11-21T02:06:34.265Z,3.44
2018-11-21T02:11:31.200Z,3.42
2018-11-21T02:16:28.085Z,3.49
2018-11-21T02:21:24.970Z,3.54
2018-11-21T02:26:21.851Z,3.53
2018-11-21T02:31:18.747Z,3.61
2018-11-21T02:36:15.636Z,3.48
2018-11-21T02:41:12.554Z,3.55
2018-11-21T02:46:09.440Z,3.53
2018-11-21T02:51:06.339Z,3.66
2018-11-21T02:56:03.234Z,3.53
2018-11-21T03:01:00.139Z,3.60
2018-11-21T03:05:57.039Z,3.60
2018-11-21T03:10:53.926Z,3.56
2018-11-21T03:15:50.877Z,3.60
2018-11-21T03:20:47.748Z,3.55
2018-11-21T03:25:44.667Z,3.55
2018-11-21T03:30:41.581Z,3.61
2018-11-21T03:35:38.471Z,3.47
2018-11-21T03:40:35.372Z,3.53
2018-11-21T03:45:32.265Z,3.52
2018-11-21T03:50:29.161Z,3.58
2018-11-21T03:55:26.049Z,3.54
2018-11-21T04:00:23.759Z,3.61
2018-11-21T04:05:20.634Z,3.61
2018-11-21T04:10:17.537Z,3.60
2018-11-21T04:15:14.438Z,3.62
2018-11-21T04:20:11.329Z,3.69
2018-11-21T04:25:09.662Z,3.64
2018-11-21T04:30:09.572Z,3.73
2018-11-21T04:35:06.850Z,3.68
2018-11-21T04:40:05.517Z,3.59
2018-11-21T04:45:02.446Z,3.59
2018-11-21T04:49:59.343Z,3.62
2018-11-21T04:54:56.255Z,3.73
2018-11-21T05:00:02.513Z,3.65
2018-11-21T05:04:59.378Z,3.63
2018-11-21T05:09:56.260Z,3.65
2018-11-21T05:14:53.216Z,3.62
2018-11-21T05:19:50.104Z,3.66
2018-11-21T05:24:47.099Z,3.69
2018-11-21T05:29:45.560Z,3.69
2018-11-21T05:34:42.417Z,3.77
2018-11-21T05:39:39.418Z,3.75
2018-11-21T05:44:36.330Z,3.78
2018-11-21T05:49:33.212Z,3.71
2018-11-21T05:54:30.102Z,3.70
2018-11-21T05:59:32.551Z,3.70
2018-11-21T06:04:29.444Z,3.80
2018-11-21T06:09:26.724Z,3.83
2018-11-21T06:14:23.225Z,3.78
2018-11-21T06:19:20.130Z,3.78
2018-11-21T06:24:17.013Z,3.82
2018-11-21T06:29:28.453Z,3.82
2018-11-21T06:34:25.450Z,3.83
2018-11-21T06:39:22.401Z,3.82
2018-11-21T06:44:19.335Z,3.77
2018-11-21T06:49:16.247Z,3.78
2018-11-21T06:54:13.876Z,3.73
2018-11-21T06:59:12.423Z,3.77
2018-11-21T07:04:09.326Z,3.82
2018-11-21T07:09:08.642Z,3.78
2018-11-21T07:14:07.316Z,3.79
2018-11-21T07:19:02.833Z,3.82
2018-11-21T07:23:59.752Z,3.89
2018-11-21T07:28:56.714Z,3.90
2018-11-21T07:33:53.615Z,3.80
2018-11-21T07:38:50.543Z,3.81
2018-11-21T07:43:47.479Z,3.88
2018-11-21T07:48:44.427Z,3.89
2018-11-21T07:53:41.357Z,3.91
2018-11-21T07:58:38.329Z,3.96
2018-11-21T08:03:46.233Z,3.90
2018-11-21T08:09:03.110Z,3.90
2018-11-21T08:14:28.774Z,4.00
2018-11-21T08:19:45.299Z,3.92
2018-11-21T08:25:11.014Z,3.99
2018-11-21T08:30:08.914Z,4.11
2018-11-21T08:35:05.846Z,4.07
2018-11-21T08:40:02.788Z,4.21
2018-11-21T08:44:59.743Z,4.25
2018-11-21T08:49:56.675Z,4.20
2018-11-21T08:54:53.596Z,4.24
2018-11-21T09:00:05.506Z,4.34
2018-11-21T09:05:02.398Z,4.34
2018-11-21T09:09:59.317Z,4.43
2018-11-21T09:14:56.411Z,4.56
2018-11-21T09:19:53.361Z,4.69
2018-11-21T09:24:50.279Z,4.73
2018-11-21T09:29:50.554Z,4.80
2018-11-21T09:34:47.442Z,4.79
2018-11-21T09:39:45.949Z,4.85
2018-11-21T09:44:43.212Z,4.93
2018-11-21T09:49:40.141Z,4.90
2018-11-21T09:54:37.410Z,4.91
2018-11-21T09:59:56.065Z,5.09
2018-11-21T10:04:52.957Z,5.18
2018-11-21T10:09:50.743Z,5.27
2018-11-21T10:14:47.668Z,5.25
2018-11-21T10:19:44.600Z,5.37
2018-11-21T10:24:41.691Z,5.45
2018-11-21T10:29:42.364Z,5.35
2018-11-21T10:35:50.398Z,5.37
2018-11-21T10:40:49.064Z,5.27
2018-11-21T10:45:47.730Z,5.34
2018-11-21T10:50:46.463Z,5.56
2018-11-21T10:55:45.136Z,5.51
2018-11-21T11:01:01.709Z,5.51
2018-11-21T11:06:28.936Z,5.44
2018-11-21T11:11:45.213Z,5.67
2018-11-21T11:17:04.303Z,5.49
2018-11-21T11:22:28.311Z,5.56
2018-11-21T11:27:51.722Z,5.54
2018-11-21T11:33:07.220Z,5.51
2018-11-21T11:38:25.085Z,5.42
2018-11-21T11:44:01.084Z,5.35
2018-11-21T11:49:09.739Z,5.48
2018-11-21T11:54:27.576Z,5.42
2018-11-21T11:59:50.514Z,5.29
2018-11-21T12:05:20.916Z,5.24
2018-11-21T12:10:38.692Z,5.18
2018-11-21T12:15:55.032Z,5.06
2018-11-21T12:21:11.258Z,5.04
2018-11-21T12:26:30.393Z,5.18
2018-11-21T12:31:56.964Z,5.12
2018-11-21T12:37:27.875Z,4.97
2018-11-21T12:42:44.441Z,4.89
2018-11-21T12:47:50.285Z,4.89
2018-11-21T12:53:14.474Z,4.89
2018-11-21T12:58:28.743Z,5.03
2018-11-21T13:03:46.610Z,5.06
2018-11-21T13:08:51.551Z,4.92
2018-11-21T13:14:01.590Z,4.94
2018-11-21T13:19:31.007Z,4.79
2018-11-21T13:24:54.738Z,4.89
2018-11-21T13:30:24.847Z,4.86
2018-11-21T13:35:46.322Z,4.86
2018-11-21T13:40:59.467Z,4.74
2018-11-21T13:46:20.105Z,4.49
2018-11-21T13:51:36.623Z,4.72
2018-11-21T13:56:35.597Z,4.65
2018-11-21T14:01:34.292Z,4.51
2018-11-21T14:06:33.023Z,4.58
2018-11-21T14:11:31.764Z,4.61
2018-11-21T14:16:30.456Z,4.52
2018-11-21T14:21:29.216Z,4.51
2018-11-21T14:26:27.896Z,4.53
2018-11-21T14:31:26.544Z,4.59
2018-11-21T14:36:27.001Z,4.67
2018-11-21T14:41:25.846Z,4.66
2018-11-21T14:46:24.513Z,4.58
2018-11-21T14:51:23.215Z,4.48
2018-11-21T14:56:21.918Z,4.42
2018-11-21T15:01:20.605Z,4.25
2018-11-21T15:06:19.285Z,4.21
2018-11-21T15:11:17.940Z,4.06
2018-11-21T15:16:16.651Z,4.06
2018-11-21T15:21:16.654Z,3.97
2018-11-21T15:26:14.065Z,3.84
2018-11-21T15:31:12.759Z,3.87
2018-11-21T15:36:11.412Z,3.87
2018-11-21T15:41:10.083Z,3.83
2018-11-21T15:46:09.874Z,3.83
2018-11-21T15:51:08.540Z,3.86
2018-11-21T15:56:07.177Z,3.82
2018-11-21T16:01:06.098Z,3.73
2018-11-21T16:06:05.063Z,3.74
2018-11-21T16:11:03.708Z,3.72
2018-11-21T16:16:02.351Z,3.72
2018-11-21T16:21:01.017Z,3.61
2018-11-21T16:25:59.664Z,3.66
2018-11-21T16:30:58.319Z,3.55
2018-11-21T16:35:56.960Z,3.57
2018-11-21T16:40:55.689Z,3.63
2018-11-21T16:45:56.107Z,3.61
2018-11-21T16:50:54.756Z,3.57
2018-11-21T16:55:53.407Z,3.58
2018-11-21T17:00:52.055Z,3.52
2018-11-21T17:05:50.702Z,3.58
2018-11-21T17:10:49.368Z,3.55
2018-11-21T17:15:48.007Z,3.59
2018-11-21T17:20:46.697Z,3.60
2018-11-21T17:25:45.362Z,3.61
2018-11-21T17:30:45.125Z,3.63
2018-11-21T17:35:43.736Z,3.50
2018-11-21T17:40:43.483Z,3.53
2018-11-21T17:45:42.134Z,3.47
2018-11-21T17:50:40.784Z,3.54
2018-11-21T17:55:40.006Z,3.47
2018-11-21T18:00:38.735Z,3.46
2018-11-21T18:05:38.948Z,3.39
2018-11-21T18:10:39.192Z,3.46
2018-11-21T18:15:37.829Z,3.38
2018-11-21T18:20:36.513Z,3.36
2018-11-21T18:25:37.132Z,3.37
2018-11-21T18:30:36.780Z,3.40
2018-11-21T18:35:35.738Z,3.44
2018-11-21T18:40:34.129Z,3.42
2018-11-21T18:45:35.639Z,3.47
2018-11-21T18:50:34.423Z,3.51
2018-11-21T18:55:38.177Z,3.50
2018-11-21T19:00:38.444Z,3.47
2018-11-21T19:05:37.064Z,3.42
2018-11-21T19:10:35.703Z,3.33
2018-11-21T19:15:34.392Z,3.42
2018-11-21T19:20:33.008Z,3.42
2018-11-21T19:25:31.968Z,3.41
2018-11-21T19:30:31.495Z,3.27
2018-11-21T19:35:30.168Z,3.19
2018-11-21T19:40:28.808Z,3.16
2018-11-21T19:45:27.466Z,3.18
2018-11-21T19:50:26.104Z,3.13
2018-11-21T19:55:26.583Z,3.13
2018-11-21T20:00:27.671Z,3.11
2018-11-21T20:05:26.413Z,3.20
2018-11-21T20:10:25.265Z,3.25
2018-11-21T20:15:25.104Z,3.20
2018-11-21T20:20:24.206Z,3.19
2018-11-21T20:25:24.134Z,3.24
2018-11-21T20:30:28.431Z,3.22
2018-11-21T20:35:27.049Z,3.16
2018-11-21T20:40:27.416Z,3.14
2018-11-21T20:45:27.052Z,3.02
2018-11-21T20:50:25.704Z,3.14
2018-11-21T20:55:25.883Z,3.12
2018-11-21T21:00:26.997Z,3.05
2018-11-21T21:05:26.254Z,3.03
2018-11-21T21:10:26.397Z,3.09
2018-11-21T21:15:25.047Z,3.08
2018-11-21T21:20:25.679Z,3.09
2018-11-21T21:25:31.100Z,3.13
2018-11-21T21:30:32.193Z,3.23
2018-11-21T21:35:32.207Z,3.24
2018-11-21T21:40:30.964Z,3.23
2018-11-21T21:45:30.689Z,3.29
2018-11-21T21:50:30.969Z,3.21
2018-11-21T21:55:30.483Z,3.23
2018-11-21T22:00:29.805Z,3.27
2018-11-21T22:05:28.457Z,3.41
2018-11-21T22:10:27.133Z,3.35
2018-11-21T22:15:27.150Z,3.29
2018-11-21T22:20:25.882Z,3.27
2018-11-21T22:25:24.754Z,3.23
2018-11-21T22:30:24.001Z,3.34
2018-11-21T22:35:25.085Z,3.34
2018-11-21T22:40:23.331Z,3.18
2018-11-21T22:45:22.743Z,3.36
2018-11-21T22:50:22.678Z,3.30
2018-11-21T22:55:21.734Z,3.27
2018-11-21T23:00:23.642Z,3.20
2018-11-21T23:05:22.297Z,3.31
2018-11-21T23:10:26.617Z,3.34
2018-11-21T23:15:25.277Z,3.38
2018-11-21T23:20:23.929Z,3.29
2018-11-21T23:25:22.599Z,3.31
2018-11-21T23:30:22.431Z,3.31
2018-11-21T23:35:21.548Z,3.40
2018-11-21T23:40:20.198Z,3.31
2018-11-21T23:45:19.069Z,3.37
2018-11-21T23:50:18.495Z,3.14
2018-11-21T23:55:18.623Z,3.34
